Angostura, New Mexico
Current Conditions -  °F | °C
As of 12:55 AM on Sunday 26 Oct 2014 (Local Time) from KSKX Reporting Station
Clear Clear  
Wind Chill: 39°   Ceiling: Unl
Heat Index: 43°   Visibility: 10mi
Dew Point: 21°   Wind: 6mph
Humidity: 42%   Direction: 60°ENE
Pressure: 30.26"   Gusts: NA
Location:  36.1892°N, 105.688°W
Report Text: KSKX 260655Z AUTO 06005KT 10SM CLR 06/M06 A3026 RMK AO1
Loading
Personal Weather Stations






























Interactive Weather Map
Tropical Storm Tracking
New forecast layout! Learn more

10-Day Weather Forecast

Advertisements
Track Severe Weather on mobile